createdAt,value
2023-02-17T00:04:13.674Z,5.07
2023-02-17T00:09:23.343Z,5.09
2023-02-17T00:14:33.187Z,5.11
2023-02-17T00:19:43.585Z,5.14
2023-02-17T00:24:53.120Z,5.13
2023-02-17T00:30:02.951Z,5.13
2023-02-17T00:35:13.195Z,5.12
2023-02-17T00:40:23.247Z,5.14
2023-02-17T00:45:33.094Z,5.17
2023-02-17T00:50:43.081Z,5.22
2023-02-17T00:55:53.078Z,5.24
2023-02-17T01:01:04.032Z,5.28
2023-02-17T01:06:23.788Z,5.30
2023-02-17T01:11:35.880Z,5.30
2023-02-17T01:16:49.207Z,5.27
2023-02-17T01:21:59.107Z,5.26
2023-02-17T01:27:09.062Z,5.23
2023-02-17T01:32:18.932Z,5.20
2023-02-17T01:37:28.583Z,5.19
2023-02-17T01:42:38.243Z,5.17
2023-02-17T01:47:50.781Z,5.16
2023-02-17T01:53:02.212Z,5.17
2023-02-17T01:58:17.313Z,5.18
2023-02-17T02:03:28.943Z,5.19
2023-02-17T02:08:52.913Z,5.20
2023-02-17T02:14:04.704Z,5.20
2023-02-17T02:19:48.069Z,5.19
2023-02-17T02:25:17.730Z,5.20
2023-02-17T02:31:03.511Z,5.22
2023-02-17T02:36:22.415Z,5.23
2023-02-17T02:41:36.479Z,5.25
2023-02-17T02:46:46.485Z,5.26
2023-02-17T02:52:09.384Z,5.26
2023-02-17T02:57:45.294Z,5.27
2023-02-17T03:03:00.817Z,5.29
2023-02-17T03:08:19.240Z,5.31
2023-02-17T03:13:29.122Z,5.32
2023-02-17T03:18:39.492Z,5.32
2023-02-17T03:23:49.512Z,5.34
2023-02-17T03:28:59.119Z,5.37
2023-02-17T03:34:10.055Z,5.38
2023-02-17T03:39:19.882Z,5.41
2023-02-17T03:44:29.542Z,5.42
2023-02-17T03:49:39.014Z,5.42
2023-02-17T03:54:49.137Z,5.44
2023-02-17T03:59:58.882Z,5.47
2023-02-17T04:05:09.593Z,5.49
2023-02-17T04:10:19.689Z,5.49
2023-02-17T04:15:30.132Z,5.46
2023-02-17T04:20:40.026Z,5.45
2023-02-17T04:25:50.576Z,5.46
2023-02-17T04:31:03.007Z,5.46
2023-02-17T04:36:13.731Z,5.47
2023-02-17T04:41:23.440Z,5.47
2023-02-17T04:46:33.131Z,5.49
2023-02-17T04:51:42.768Z,5.52
2023-02-17T04:56:52.554Z,5.54
2023-02-17T05:02:02.303Z,5.54
2023-02-17T05:07:12.102Z,5.51
2023-02-17T05:12:21.689Z,5.48
2023-02-17T05:17:31.728Z,5.47
2023-02-17T05:22:41.447Z,5.46
2023-02-17T05:27:50.939Z,5.44
2023-02-17T05:33:01.332Z,5.42
2023-02-17T05:38:10.895Z,5.40
2023-02-17T05:43:20.431Z,5.37
2023-02-17T05:48:30.285Z,5.38
2023-02-17T05:53:39.922Z,5.38
2023-02-17T05:58:49.629Z,5.37
2023-02-17T06:03:59.194Z,5.37
2023-02-17T06:09:09.032Z,5.37
2023-02-17T06:14:18.909Z,5.37
2023-02-17T06:19:29.080Z,5.38
2023-02-17T06:24:38.695Z,5.39
2023-02-17T06:29:48.496Z,5.39
2023-02-17T06:34:58.312Z,5.41
2023-02-17T06:40:09.402Z,5.41
2023-02-17T06:45:19.402Z,5.43
2023-02-17T06:50:29.438Z,5.44
2023-02-17T06:55:39.914Z,5.45
2023-02-17T07:00:49.786Z,5.45
2023-02-17T07:06:04.011Z,5.45
2023-02-17T07:11:15.888Z,5.47
2023-02-17T07:16:25.691Z,5.49
2023-02-17T07:21:35.321Z,5.52
2023-02-17T07:26:45.629Z,5.56
2023-02-17T07:31:55.351Z,5.59
2023-02-17T07:37:05.258Z,5.59
2023-02-17T07:42:15.112Z,5.59
2023-02-17T07:47:24.923Z,5.61
2023-02-17T07:52:34.652Z,5.60
2023-02-17T07:57:44.527Z,5.61
2023-02-17T08:02:54.248Z,5.61
2023-02-17T08:08:21.426Z,5.64
2023-02-17T08:13:32.148Z,5.70
2023-02-17T08:18:42.127Z,5.78
2023-02-17T08:23:51.882Z,5.86
2023-02-17T08:29:01.881Z,5.92
2023-02-17T08:34:13.810Z,5.99
2023-02-17T08:39:24.448Z,6.08
2023-02-17T08:44:36.136Z,6.11
2023-02-17T08:49:46.002Z,6.14
2023-02-17T08:54:59.822Z,6.18
2023-02-17T09:00:16.434Z,6.21
2023-02-17T09:05:27.132Z,6.25
2023-02-17T09:10:36.890Z,6.28
2023-02-17T09:15:47.047Z,6.32
2023-02-17T09:20:58.786Z,6.38
2023-02-17T09:26:11.468Z,6.45
2023-02-17T09:31:24.989Z,6.50
2023-02-17T09:36:42.570Z,6.55
2023-02-17T09:41:55.590Z,6.55
2023-02-17T09:47:12.854Z,6.56
2023-02-17T09:52:35.099Z,6.68
2023-02-17T09:57:55.242Z,6.74
2023-02-17T10:03:15.909Z,6.73
2023-02-17T10:08:33.944Z,6.79
2023-02-17T10:13:48.046Z,6.78
2023-02-17T10:19:08.148Z,6.72
2023-02-17T10:24:18.023Z,6.67
2023-02-17T10:29:51.661Z,6.66
2023-02-17T10:35:17.468Z,6.65
2023-02-17T10:40:29.578Z,6.63
2023-02-17T10:45:43.481Z,6.56
2023-02-17T10:50:54.976Z,6.53
2023-02-17T10:56:14.736Z,6.49
2023-02-17T11:01:24.796Z,6.43
2023-02-17T11:06:39.269Z,6.43
2023-02-17T11:12:02.786Z,6.49
2023-02-17T11:17:27.704Z,6.57
2023-02-17T11:22:44.811Z,6.61
2023-02-17T11:27:59.366Z,6.64
2023-02-17T11:33:22.891Z,6.64
2023-02-17T11:38:43.798Z,6.59
2023-02-17T11:44:01.785Z,6.57
2023-02-17T11:50:03.388Z,6.57
2023-02-17T11:55:26.069Z,6.55
2023-02-17T12:00:52.728Z,6.52
2023-02-17T12:06:19.855Z,6.52
2023-02-17T12:11:38.988Z,6.49
2023-02-17T12:17:04.198Z,6.50
2023-02-17T12:22:24.415Z,6.51
2023-02-17T12:27:51.370Z,6.49
2023-02-17T12:33:36.573Z,6.51
2023-02-17T12:38:54.854Z,6.53
2023-02-17T12:44:14.219Z,6.55
2023-02-17T12:49:31.331Z,6.55
2023-02-17T12:54:48.187Z,6.55
2023-02-17T13:00:00.431Z,6.58
2023-02-17T13:05:23.728Z,6.57
2023-02-17T13:10:42.066Z,6.57
2023-02-17T13:16:02.989Z,6.57
2023-02-17T13:21:34.150Z,6.58
2023-02-17T13:26:45.834Z,6.59
2023-02-17T13:31:59.145Z,6.62
2023-02-17T13:37:39.518Z,6.63
2023-02-17T13:42:51.241Z,6.65
2023-02-17T13:48:12.699Z,6.68
2023-02-17T13:53:37.833Z,6.70
2023-02-17T13:58:47.814Z,6.71
2023-02-17T14:04:00.378Z,6.73
2023-02-17T14:09:24.208Z,6.74
2023-02-17T14:14:38.846Z,6.76
2023-02-17T14:19:51.939Z,6.78
2023-02-17T14:25:08.654Z,6.81
2023-02-17T14:30:33.739Z,6.83
2023-02-17T14:35:53.371Z,6.85
2023-02-17T14:41:03.369Z,6.86
2023-02-17T14:46:14.764Z,6.86
2023-02-17T14:51:26.973Z,6.87
2023-02-17T14:56:42.313Z,6.89
2023-02-17T15:01:52.348Z,6.92
2023-02-17T15:07:02.311Z,6.93
2023-02-17T15:12:19.408Z,6.95
2023-02-17T15:17:29.223Z,6.96
2023-02-17T15:22:42.594Z,6.96
2023-02-17T15:27:52.642Z,6.99
2023-02-17T15:33:02.889Z,7.02
2023-02-17T15:38:16.686Z,7.05
2023-02-17T15:48:52.461Z,7.08
2023-02-17T15:54:02.313Z,7.10
2023-02-17T15:59:19.865Z,7.12
2023-02-17T16:04:30.446Z,7.14
2023-02-17T16:09:40.718Z,7.16
2023-02-17T16:14:50.733Z,7.19
2023-02-17T16:20:00.569Z,7.21
2023-02-17T16:25:12.628Z,7.24
2023-02-17T16:30:26.434Z,7.28
2023-02-17T16:35:37.353Z,7.31
2023-02-17T16:40:52.039Z,7.33
2023-02-17T16:46:06.730Z,7.36
2023-02-17T16:51:16.661Z,7.37
2023-02-17T16:56:36.238Z,7.43
2023-02-17T17:01:46.622Z,7.49
2023-02-17T17:06:57.296Z,7.53
2023-02-17T17:12:07.811Z,7.57
2023-02-17T17:17:17.701Z,7.61
2023-02-17T17:22:27.658Z,7.64
2023-02-17T17:27:38.172Z,7.69
2023-02-17T17:32:48.341Z,7.76
2023-02-17T17:37:59.006Z,7.82
2023-02-17T17:43:09.087Z,7.88
2023-02-17T17:48:20.896Z,7.94
2023-02-17T17:53:30.712Z,8.00
2023-02-17T17:58:40.555Z,8.07
2023-02-17T18:03:51.623Z,8.14
2023-02-17T18:09:07.446Z,8.22
2023-02-17T18:14:19.363Z,8.28
2023-02-17T18:19:30.854Z,8.36
2023-02-17T18:24:41.504Z,8.43
2023-02-17T18:29:51.515Z,8.47
2023-02-17T18:35:01.567Z,8.54
2023-02-17T18:40:15.757Z,8.60
2023-02-17T18:45:26.454Z,8.63
2023-02-17T18:50:37.174Z,8.69
2023-02-17T18:55:47.058Z,8.75
2023-02-17T19:00:56.843Z,8.78
2023-02-17T19:06:16.201Z,8.82
2023-02-17T19:11:27.562Z,8.87
2023-02-17T19:16:39.086Z,8.92
2023-02-17T19:21:48.788Z,8.96
2023-02-17T19:26:58.511Z,8.98
2023-02-17T19:32:09.621Z,9.00
2023-02-17T19:37:19.522Z,9.00
2023-02-17T19:42:29.440Z,9.02
2023-02-17T19:47:39.036Z,9.03
2023-02-17T19:52:49.370Z,9.05
2023-02-17T19:57:59.154Z,9.09
2023-02-17T20:03:09.405Z,9.02
2023-02-17T20:08:19.450Z,8.87
2023-02-17T20:13:34.722Z,8.78
2023-02-17T20:18:52.470Z,8.64
2023-02-17T20:24:03.176Z,8.51
2023-02-17T20:29:14.008Z,8.39
2023-02-17T20:34:33.423Z,8.39
2023-02-17T20:39:43.463Z,8.33
2023-02-17T20:44:54.768Z,8.33
2023-02-17T20:50:09.500Z,8.28
2023-02-17T20:55:19.996Z,8.14
2023-02-17T21:00:31.786Z,8.02
2023-02-17T21:05:41.803Z,7.89
2023-02-17T21:10:52.053Z,7.77
2023-02-17T21:16:02.034Z,7.69
2023-02-17T21:21:12.377Z,7.61
2023-02-17T21:26:22.341Z,7.54
2023-02-17T21:31:32.831Z,7.38
2023-02-17T21:36:42.843Z,7.28
2023-02-17T21:41:54.301Z,7.29
2023-02-17T21:47:04.244Z,7.32
2023-02-17T21:52:14.055Z,7.31
2023-02-17T21:57:23.974Z,7.33
2023-02-17T22:02:34.204Z,7.31
2023-02-17T22:07:43.999Z,7.28
2023-02-17T22:12:53.803Z,7.30
2023-02-17T22:18:04.248Z,7.30
2023-02-17T22:23:14.149Z,7.26
2023-02-17T22:28:23.853Z,7.24
2023-02-17T22:33:34.100Z,7.25
2023-02-17T22:38:44.000Z,7.27
2023-02-17T22:43:55.519Z,7.23
2023-02-17T22:49:05.558Z,7.29
2023-02-17T22:54:15.412Z,7.30
2023-02-17T22:59:25.151Z,7.30
2023-02-17T23:04:34.887Z,7.30
2023-02-17T23:09:44.715Z,7.29
2023-02-17T23:14:54.606Z,7.23
2023-02-17T23:20:04.849Z,7.14
2023-02-17T23:25:16.784Z,7.00
2023-02-17T23:30:28.248Z,6.91
2023-02-17T23:35:45.151Z,6.82
2023-02-17T23:40:56.524Z,6.76
2023-02-17T23:46:07.820Z,6.75
2023-02-17T23:51:21.391Z,6.70
2023-02-17T23:56:34.696Z,6.63
